createdAt,value
2022-09-26T00:02:12.191Z,54.19
2022-09-26T00:08:58.898Z,54.36
2022-09-26T00:15:47.632Z,53.48
2022-09-26T00:22:32.979Z,54.73
2022-09-26T00:29:18.503Z,54.85
2022-09-26T00:36:08.959Z,55.02
2022-09-26T00:42:54.694Z,55.49
2022-09-26T00:49:43.997Z,55.21
2022-09-26T00:56:38.171Z,55.77
2022-09-26T01:03:24.243Z,55.82
2022-09-26T01:10:12.160Z,55.76
2022-09-26T01:17:00.333Z,55.92
2022-09-26T01:24:23.171Z,56.38
2022-09-26T01:31:21.114Z,55.85
2022-09-26T01:38:18.307Z,55.49
2022-09-26T01:45:13.125Z,55.05
2022-09-26T01:52:08.514Z,54.74
2022-09-26T01:59:00.174Z,54.53
2022-09-26T02:05:51.118Z,54.77
2022-09-26T02:12:42.351Z,54.97
2022-09-26T02:19:32.701Z,55.30
2022-09-26T02:26:18.278Z,55.34
2022-09-26T02:33:06.707Z,56.12
2022-09-26T02:39:56.053Z,56.33
2022-09-26T03:00:47.590Z,57.68
2022-09-26T03:07:40.141Z,57.84
2022-09-26T03:14:25.895Z,57.84
2022-09-26T03:21:14.959Z,58.56
2022-09-26T03:28:02.392Z,58.23
2022-09-26T03:34:48.718Z,58.36
2022-09-26T03:41:37.327Z,58.34
2022-09-26T03:48:28.088Z,57.65
2022-09-26T03:55:13.869Z,57.96
2022-09-26T04:02:02.348Z,57.44
2022-09-26T04:08:49.548Z,57.16
2022-09-26T04:15:35.273Z,57.00
2022-09-26T04:22:30.401Z,57.18
2022-09-26T04:29:16.241Z,57.34
2022-09-26T04:36:18.351Z,57.78
2022-09-26T04:43:07.227Z,57.86
2022-09-26T04:49:52.742Z,58.41
2022-09-26T04:56:38.513Z,58.56
2022-09-26T05:03:29.537Z,59.03
2022-09-26T05:10:15.191Z,59.70
2022-09-26T05:17:09.584Z,60.27
2022-09-26T05:24:10.174Z,60.49
2022-09-26T05:30:56.974Z,60.85
2022-09-26T05:37:42.503Z,60.96
2022-09-26T05:44:32.589Z,61.81
2022-09-26T05:51:21.169Z,61.71
2022-09-26T05:58:08.482Z,61.78
2022-09-26T06:05:16.940Z,61.96
2022-09-26T06:12:02.580Z,62.12
2022-09-26T06:18:49.278Z,62.20
2022-09-26T06:25:37.213Z,62.32
2022-09-26T06:32:22.906Z,62.34
2022-09-26T06:39:35.594Z,62.11
2022-09-26T06:46:24.032Z,62.12
2022-09-26T06:53:21.058Z,62.07
2022-09-26T07:00:07.896Z,62.06
2022-09-26T07:07:14.380Z,62.14
2022-09-26T07:14:00.416Z,61.89
2022-09-26T07:20:47.894Z,62.12
2022-09-26T07:27:56.774Z,62.39
2022-09-26T07:34:53.204Z,62.70
2022-09-26T07:41:38.894Z,62.62
2022-09-26T07:48:40.754Z,62.58
2022-09-26T07:56:04.220Z,62.29
2022-09-26T08:03:07.896Z,62.42
2022-09-26T08:10:01.834Z,62.36
2022-09-26T08:17:09.463Z,62.87
2022-09-26T08:23:57.566Z,62.58
2022-09-26T08:31:11.646Z,62.47
2022-09-26T08:37:57.181Z,62.22
2022-09-26T08:45:47.911Z,62.64
2022-09-26T08:53:05.537Z,62.66
2022-09-26T08:59:57.233Z,62.39
2022-09-26T09:06:43.332Z,61.92
2022-09-26T09:14:00.450Z,61.71
2022-09-26T09:21:19.501Z,61.75
2022-09-26T09:28:36.736Z,61.43
2022-09-26T09:35:31.697Z,60.95
2022-09-26T09:42:43.721Z,60.32
2022-09-26T09:49:33.048Z,59.85
2022-09-26T09:56:31.604Z,59.67
2022-09-26T10:03:27.655Z,59.63
2022-09-26T10:10:22.648Z,58.65
2022-09-26T10:17:33.885Z,58.09
2022-09-26T10:24:40.881Z,58.15
2022-09-26T10:31:42.023Z,57.21
2022-09-26T10:38:54.889Z,56.77
2022-09-26T10:45:40.454Z,56.20
2022-09-26T10:53:02.087Z,55.67
2022-09-26T10:59:50.543Z,54.07
2022-09-26T11:06:38.932Z,53.98
2022-09-26T11:14:04.976Z,53.36
2022-09-26T11:20:54.740Z,52.99
2022-09-26T11:27:48.018Z,53.36
2022-09-26T11:34:43.221Z,53.04
2022-09-26T11:41:42.561Z,52.67
2022-09-26T11:48:58.233Z,51.64
2022-09-26T11:56:30.054Z,50.58
2022-09-26T12:03:38.983Z,50.57
2022-09-26T12:10:37.700Z,50.36
2022-09-26T12:17:41.045Z,49.44
2022-09-26T12:24:33.915Z,49.56
2022-09-26T12:31:32.709Z,48.99
2022-09-26T12:38:57.015Z,48.76
2022-09-26T12:46:12.327Z,48.61
2022-09-26T12:53:35.945Z,48.21
2022-09-26T13:00:25.324Z,48.32
2022-09-26T13:07:29.375Z,47.92
2022-09-26T13:14:36.275Z,48.57
2022-09-26T13:21:40.213Z,48.64
2022-09-26T13:28:31.608Z,48.61
2022-09-26T13:35:23.731Z,48.43
2022-09-26T13:42:18.055Z,48.56
2022-09-26T13:49:19.056Z,48.70
2022-09-26T13:56:50.599Z,49.35
2022-09-26T14:03:47.882Z,49.63
2022-09-26T14:10:41.646Z,49.24
2022-09-26T14:18:13.292Z,49.70
2022-09-26T14:25:02.188Z,49.39
2022-09-26T14:32:04.426Z,49.92
2022-09-26T14:38:51.416Z,50.37
2022-09-26T14:45:52.121Z,51.03
2022-09-26T14:52:41.375Z,51.50
2022-09-26T14:59:50.669Z,51.79
2022-09-26T15:06:46.453Z,51.57
2022-09-26T15:13:41.629Z,51.76
2022-09-26T15:20:27.910Z,51.56
2022-09-26T15:27:27.020Z,51.71
2022-09-26T15:34:19.460Z,52.01
2022-09-26T15:41:15.162Z,52.33
2022-09-26T15:48:09.984Z,52.08
2022-09-26T15:55:12.856Z,52.16
2022-09-26T16:01:58.912Z,52.33
2022-09-26T16:08:59.810Z,52.23
2022-09-26T16:15:56.253Z,52.14
2022-09-26T16:23:03.373Z,52.63
2022-09-26T16:29:59.104Z,52.70
2022-09-26T16:36:49.725Z,52.60
2022-09-26T16:43:36.181Z,52.71
2022-09-26T16:50:33.368Z,52.71
2022-09-26T16:57:23.822Z,53.06
2022-09-26T17:04:15.801Z,53.03
2022-09-26T17:11:06.792Z,53.60
2022-09-26T17:17:54.137Z,53.38
2022-09-26T17:24:39.712Z,53.61
2022-09-26T17:31:27.958Z,54.23
2022-09-26T17:38:18.678Z,54.56
2022-09-26T17:45:04.248Z,54.96
2022-09-26T17:51:54.076Z,55.51
2022-09-26T17:58:44.028Z,56.03
2022-09-26T18:05:34.185Z,56.48
2022-09-26T18:12:25.563Z,56.77
2022-09-26T18:19:12.539Z,57.26
2022-09-26T18:26:00.857Z,57.75
2022-09-26T18:32:54.997Z,57.88
2022-09-26T18:39:40.724Z,57.36
2022-09-26T18:46:26.818Z,57.09
2022-09-26T18:53:18.150Z,57.06
2022-09-26T19:00:05.249Z,57.26
2022-09-26T19:06:58.001Z,57.20
2022-09-26T19:13:47.736Z,57.48
2022-09-26T19:20:33.442Z,57.19
2022-09-26T19:27:23.960Z,56.86
2022-09-26T19:34:16.764Z,57.34
2022-09-26T19:41:03.496Z,57.61
2022-09-26T19:47:52.850Z,58.18
2022-09-26T19:54:41.308Z,58.89
2022-09-26T20:01:27.431Z,58.91
2022-09-26T20:08:17.479Z,59.31
2022-09-26T20:15:05.708Z,59.52
2022-09-26T20:21:51.246Z,59.87
2022-09-26T20:28:36.961Z,59.95
2022-09-26T20:35:25.337Z,60.70
2022-09-26T20:42:12.935Z,60.77
2022-09-26T20:48:58.436Z,61.19
2022-09-26T20:55:46.703Z,61.49
2022-09-26T21:02:37.438Z,61.70
2022-09-26T21:09:23.992Z,62.01
2022-09-26T21:16:16.152Z,62.37
2022-09-26T21:23:04.832Z,62.88
2022-09-26T21:29:50.414Z,62.96
2022-09-26T21:36:45.514Z,63.18
2022-09-26T21:43:35.640Z,63.37
2022-09-26T21:50:21.369Z,63.42
2022-09-26T21:57:14.119Z,63.67
2022-09-26T22:03:59.680Z,63.87
2022-09-26T22:10:45.260Z,63.91
2022-09-26T22:17:33.405Z,64.26
2022-09-26T22:24:19.137Z,64.39
2022-09-26T22:31:05.703Z,64.37
2022-09-26T22:37:53.918Z,64.81
2022-09-26T22:44:39.477Z,65.14
2022-09-26T22:51:25.167Z,65.51
2022-09-26T22:58:15.277Z,65.82
2022-09-26T23:05:00.764Z,65.64
2022-09-26T23:11:47.156Z,66.21
2022-09-26T23:18:35.575Z,66.37
2022-09-26T23:25:21.259Z,66.42
2022-09-26T23:32:06.905Z,66.50
2022-09-26T23:38:55.177Z,66.78
2022-09-26T23:45:41.804Z,66.88
2022-09-26T23:52:27.587Z,66.85
2022-09-26T23:59:15.890Z,67.20
